sensor_id;sensor_type;location;lat;lon;timestamp;P1;durP1;ratioP1;P2;durP2;ratioP2
14740;SDS011;7462;53.530;9.414;2023-04-25T00:00:24;18.00;;;4.10;;
14740;SDS011;7462;53.530;9.414;2023-04-25T00:02:53;18.80;;;3.70;;
14740;SDS011;7462;53.530;9.414;2023-04-25T00:05:23;16.07;;;4.47;;
14740;SDS011;7462;53.530;9.414;2023-04-25T00:07:52;20.53;;;4.53;;
14740;SDS011;7462;53.530;9.414;2023-04-25T00:10:20;19.97;;;4.17;;
14740;SDS011;7462;53.530;9.414;2023-04-25T00:12:48;20.33;;;4.53;;
14740;SDS011;7462;53.530;9.414;2023-04-25T00:15:16;17.80;;;3.77;;
14740;SDS011;7462;53.530;9.414;2023-04-25T00:17:45;22.47;;;4.33;;
14740;SDS011;7462;53.530;9.414;2023-04-25T00:20:14;21.37;;;4.90;;
14740;SDS011;7462;53.530;9.414;2023-04-25T00:22:43;21.83;;;4.30;;
14740;SDS011;7462;53.530;9.414;2023-04-25T00:25:11;22.50;;;4.97;;
14740;SDS011;7462;53.530;9.414;2023-04-25T00:27:39;18.87;;;4.50;;
14740;SDS011;7462;53.530;9.414;2023-04-25T00:30:08;21.67;;;4.83;;
14740;SDS011;7462;53.530;9.414;2023-04-25T00:32:37;21.50;;;4.43;;
14740;SDS011;7462;53.530;9.414;2023-04-25T00:35:05;16.83;;;4.40;;
14740;SDS011;7462;53.530;9.414;2023-04-25T00:37:35;13.30;;;3.80;;
14740;SDS011;7462;53.530;9.414;2023-04-25T00:40:04;17.47;;;4.30;;
14740;SDS011;7462;53.530;9.414;2023-04-25T00:42:34;19.33;;;4.30;;
14740;SDS011;7462;53.530;9.414;2023-04-25T00:45:04;19.33;;;4.70;;
14740;SDS011;7462;53.530;9.414;2023-04-25T00:47:35;20.73;;;4.93;;
14740;SDS011;7462;53.530;9.414;2023-04-25T00:50:04;22.10;;;4.30;;
14740;SDS011;7462;53.530;9.414;2023-04-25T00:52:33;20.07;;;4.90;;
14740;SDS011;7462;53.530;9.414;2023-04-25T00:55:03;23.40;;;5.57;;
14740;SDS011;7462;53.530;9.414;2023-04-25T00:57:31;21.97;;;5.20;;
14740;SDS011;7462;53.530;9.414;2023-04-25T01:00:00;21.40;;;4.23;;
14740;SDS011;7462;53.530;9.414;2023-04-25T01:02:29;18.27;;;4.23;;
14740;SDS011;7462;53.530;9.414;2023-04-25T01:04:58;19.60;;;4.53;;
14740;SDS011;7462;53.530;9.414;2023-04-25T01:07:26;19.97;;;4.50;;
14740;SDS011;7462;53.530;9.414;2023-04-25T01:09:55;30.03;;;4.40;;
14740;SDS011;7462;53.530;9.414;2023-04-25T01:12:25;24.13;;;5.20;;
14740;SDS011;7462;53.530;9.414;2023-04-25T01:14:53;21.10;;;4.80;;
14740;SDS011;7462;53.530;9.414;2023-04-25T01:17:22;20.13;;;4.23;;
14740;SDS011;7462;53.530;9.414;2023-04-25T01:19:51;20.40;;;4.33;;
14740;SDS011;7462;53.530;9.414;2023-04-25T01:22:20;20.63;;;4.47;;
14740;SDS011;7462;53.530;9.414;2023-04-25T01:24:49;20.40;;;4.10;;
14740;SDS011;7462;53.530;9.414;2023-04-25T01:27:18;21.57;;;4.50;;
14740;SDS011;7462;53.530;9.414;2023-04-25T01:29:47;16.47;;;4.40;;
14740;SDS011;7462;53.530;9.414;2023-04-25T01:32:15;19.53;;;4.70;;
14740;SDS011;7462;53.530;9.414;2023-04-25T01:34:44;18.07;;;4.23;;
14740;SDS011;7462;53.530;9.414;2023-04-25T01:37:12;25.10;;;4.80;;
14740;SDS011;7462;53.530;9.414;2023-04-25T01:39:44;17.93;;;4.50;;
14740;SDS011;7462;53.530;9.414;2023-04-25T01:42:13;20.43;;;5.03;;
14740;SDS011;7462;53.530;9.414;2023-04-25T01:44:41;21.90;;;4.47;;
14740;SDS011;7462;53.530;9.414;2023-04-25T01:47:09;25.43;;;4.83;;
14740;SDS011;7462;53.530;9.414;2023-04-25T01:49:38;21.00;;;4.93;;
14740;SDS011;7462;53.530;9.414;2023-04-25T01:52:06;18.20;;;4.30;;
14740;SDS011;7462;53.530;9.414;2023-04-25T01:54:34;21.80;;;4.50;;
14740;SDS011;7462;53.530;9.414;2023-04-25T01:57:04;19.53;;;4.70;;
14740;SDS011;7462;53.530;9.414;2023-04-25T01:59:34;18.80;;;5.07;;
14740;SDS011;7462;53.530;9.414;2023-04-25T02:02:15;17.90;;;4.93;;
14740;SDS011;7462;53.530;9.414;2023-04-25T02:04:43;17.00;;;3.83;;
14740;SDS011;7462;53.530;9.414;2023-04-25T02:07:12;16.07;;;3.80;;
14740;SDS011;7462;53.530;9.414;2023-04-25T02:09:51;17.80;;;4.30;;
14740;SDS011;7462;53.530;9.414;2023-04-25T02:12:26;19.87;;;4.50;;
14740;SDS011;7462;53.530;9.414;2023-04-25T02:15:00;19.00;;;4.33;;
14740;SDS011;7462;53.530;9.414;2023-04-25T02:17:37;22.27;;;4.33;;
14740;SDS011;7462;53.530;9.414;2023-04-25T02:20:05;14.93;;;3.63;;
14740;SDS011;7462;53.530;9.414;2023-04-25T02:22:34;21.27;;;5.13;;
14740;SDS011;7462;53.530;9.414;2023-04-25T02:25:05;21.63;;;4.37;;
14740;SDS011;7462;53.530;9.414;2023-04-25T02:27:36;18.30;;;4.30;;
14740;SDS011;7462;53.530;9.414;2023-04-25T02:30:04;21.70;;;4.57;;
14740;SDS011;7462;53.530;9.414;2023-04-25T02:32:33;14.20;;;4.10;;
14740;SDS011;7462;53.530;9.414;2023-04-25T02:35:02;16.93;;;3.93;;
14740;SDS011;7462;53.530;9.414;2023-04-25T02:37:30;17.37;;;4.77;;
14740;SDS011;7462;53.530;9.414;2023-04-25T02:39:59;17.23;;;3.90;;
14740;SDS011;7462;53.530;9.414;2023-04-25T02:42:30;25.03;;;4.80;;
14740;SDS011;7462;53.530;9.414;2023-04-25T02:45:00;16.07;;;3.47;;
14740;SDS011;7462;53.530;9.414;2023-04-25T02:47:28;16.83;;;4.27;;
14740;SDS011;7462;53.530;9.414;2023-04-25T02:49:57;20.47;;;3.90;;
14740;SDS011;7462;53.530;9.414;2023-04-25T02:52:27;18.67;;;4.67;;
14740;SDS011;7462;53.530;9.414;2023-04-25T02:55:02;17.03;;;4.07;;
14740;SDS011;7462;53.530;9.414;2023-04-25T02:57:32;16.13;;;3.80;;
14740;SDS011;7462;53.530;9.414;2023-04-25T03:00:02;15.03;;;4.90;;
14740;SDS011;7462;53.530;9.414;2023-04-25T03:02:31;14.47;;;3.60;;
14740;SDS011;7462;53.530;9.414;2023-04-25T03:05:00;15.70;;;3.73;;
14740;SDS011;7462;53.530;9.414;2023-04-25T03:07:29;16.20;;;3.70;;
14740;SDS011;7462;53.530;9.414;2023-04-25T03:09:57;17.63;;;4.27;;
14740;SDS011;7462;53.530;9.414;2023-04-25T03:12:27;13.73;;;3.53;;
14740;SDS011;7462;53.530;9.414;2023-04-25T03:14:55;18.90;;;4.67;;
14740;SDS011;7462;53.530;9.414;2023-04-25T03:17:24;16.33;;;3.20;;
14740;SDS011;7462;53.530;9.414;2023-04-25T03:19:52;14.63;;;3.40;;
14740;SDS011;7462;53.530;9.414;2023-04-25T03:22:20;13.93;;;3.80;;
14740;SDS011;7462;53.530;9.414;2023-04-25T03:24:50;13.13;;;3.43;;
14740;SDS011;7462;53.530;9.414;2023-04-25T03:27:18;18.60;;;3.73;;
14740;SDS011;7462;53.530;9.414;2023-04-25T03:29:47;17.10;;;3.60;;
14740;SDS011;7462;53.530;9.414;2023-04-25T03:32:15;14.40;;;3.30;;
14740;SDS011;7462;53.530;9.414;2023-04-25T03:34:44;18.03;;;3.57;;
14740;SDS011;7462;53.530;9.414;2023-04-25T03:37:12;14.93;;;3.57;;
14740;SDS011;7462;53.530;9.414;2023-04-25T03:39:41;9.57;;;3.07;;
14740;SDS011;7462;53.530;9.414;2023-04-25T03:42:09;15.60;;;4.03;;
14740;SDS011;7462;53.530;9.414;2023-04-25T03:44:38;19.73;;;3.57;;
14740;SDS011;7462;53.530;9.414;2023-04-25T03:47:06;14.57;;;3.07;;
14740;SDS011;7462;53.530;9.414;2023-04-25T03:49:34;12.53;;;3.70;;
14740;SDS011;7462;53.530;9.414;2023-04-25T03:52:07;14.33;;;3.17;;
14740;SDS011;7462;53.530;9.414;2023-04-25T03:54:38;12.10;;;2.80;;
14740;SDS011;7462;53.530;9.414;2023-04-25T03:57:15;18.57;;;3.87;;
14740;SDS011;7462;53.530;9.414;2023-04-25T03:59:43;14.07;;;3.10;;
14740;SDS011;7462;53.530;9.414;2023-04-25T04:02:13;12.83;;;3.23;;
14740;SDS011;7462;53.530;9.414;2023-04-25T04:04:41;19.07;;;3.70;;
14740;SDS011;7462;53.530;9.414;2023-04-25T04:07:12;16.43;;;3.03;;
14740;SDS011;7462;53.530;9.414;2023-04-25T04:09:44;13.27;;;3.63;;
14740;SDS011;7462;53.530;9.414;2023-04-25T04:12:18;10.53;;;2.97;;
14740;SDS011;7462;53.530;9.414;2023-04-25T04:14:46;10.37;;;3.10;;
14740;SDS011;7462;53.530;9.414;2023-04-25T04:17:14;15.07;;;3.30;;
14740;SDS011;7462;53.530;9.414;2023-04-25T04:19:42;12.20;;;3.27;;
14740;SDS011;7462;53.530;9.414;2023-04-25T04:22:16;14.93;;;3.53;;
14740;SDS011;7462;53.530;9.414;2023-04-25T04:24:45;12.60;;;3.53;;
14740;SDS011;7462;53.530;9.414;2023-04-25T04:27:18;18.83;;;3.90;;
14740;SDS011;7462;53.530;9.414;2023-04-25T04:29:52;13.90;;;3.27;;
14740;SDS011;7462;53.530;9.414;2023-04-25T04:32:25;15.07;;;3.23;;
14740;SDS011;7462;53.530;9.414;2023-04-25T04:34:54;17.20;;;3.50;;
14740;SDS011;7462;53.530;9.414;2023-04-25T04:37:25;10.73;;;3.70;;
14740;SDS011;7462;53.530;9.414;2023-04-25T04:39:53;19.93;;;3.60;;
14740;SDS011;7462;53.530;9.414;2023-04-25T04:42:25;16.53;;;3.20;;
14740;SDS011;7462;53.530;9.414;2023-04-25T04:45:01;20.10;;;3.90;;
14740;SDS011;7462;53.530;9.414;2023-04-25T04:47:44;15.80;;;3.77;;
14740;SDS011;7462;53.530;9.414;2023-04-25T04:50:31;16.73;;;3.57;;
14740;SDS011;7462;53.530;9.414;2023-04-25T04:53:22;17.00;;;3.83;;
14740;SDS011;7462;53.530;9.414;2023-04-25T04:56:08;12.57;;;2.87;;
14740;SDS011;7462;53.530;9.414;2023-04-25T04:58:45;13.50;;;2.93;;
14740;SDS011;7462;53.530;9.414;2023-04-25T05:01:44;12.40;;;3.33;;
14740;SDS011;7462;53.530;9.414;2023-04-25T05:04:31;10.20;;;2.20;;
14740;SDS011;7462;53.530;9.414;2023-04-25T05:07:18;11.53;;;2.70;;
14740;SDS011;7462;53.530;9.414;2023-04-25T05:10:03;13.93;;;3.27;;
14740;SDS011;7462;53.530;9.414;2023-04-25T05:13:01;10.60;;;2.60;;
14740;SDS011;7462;53.530;9.414;2023-04-25T05:15:43;11.70;;;2.80;;
14740;SDS011;7462;53.530;9.414;2023-04-25T05:18:17;13.93;;;3.00;;
14740;SDS011;7462;53.530;9.414;2023-04-25T05:21:02;16.33;;;3.00;;
14740;SDS011;7462;53.530;9.414;2023-04-25T05:23:54;11.60;;;3.23;;
14740;SDS011;7462;53.530;9.414;2023-04-25T05:26:41;11.70;;;3.03;;
14740;SDS011;7462;53.530;9.414;2023-04-25T05:29:33;10.37;;;2.87;;
14740;SDS011;7462;53.530;9.414;2023-04-25T05:32:10;12.17;;;2.90;;
14740;SDS011;7462;53.530;9.414;2023-04-25T05:34:39;9.37;;;3.17;;
14740;SDS011;7462;53.530;9.414;2023-04-25T05:37:20;10.67;;;3.20;;
14740;SDS011;7462;53.530;9.414;2023-04-25T05:39:57;11.07;;;3.10;;
14740;SDS011;7462;53.530;9.414;2023-04-25T05:42:59;13.13;;;2.87;;
14740;SDS011;7462;53.530;9.414;2023-04-25T05:45:44;10.37;;;2.67;;
14740;SDS011;7462;53.530;9.414;2023-04-25T05:48:47;14.23;;;2.80;;
14740;SDS011;7462;53.530;9.414;2023-04-25T05:51:31;12.27;;;2.80;;
14740;SDS011;7462;53.530;9.414;2023-04-25T05:54:28;12.03;;;2.40;;
14740;SDS011;7462;53.530;9.414;2023-04-25T05:56:56;14.40;;;2.53;;
14740;SDS011;7462;53.530;9.414;2023-04-25T05:59:26;10.50;;;2.77;;
14740;SDS011;7462;53.530;9.414;2023-04-25T06:01:54;10.17;;;2.50;;
14740;SDS011;7462;53.530;9.414;2023-04-25T06:04:23;14.23;;;2.67;;
14740;SDS011;7462;53.530;9.414;2023-04-25T06:06:53;11.60;;;2.67;;
14740;SDS011;7462;53.530;9.414;2023-04-25T06:09:21;9.60;;;3.40;;
14740;SDS011;7462;53.530;9.414;2023-04-25T06:11:52;13.70;;;3.13;;
14740;SDS011;7462;53.530;9.414;2023-04-25T06:14:20;9.73;;;2.47;;
14740;SDS011;7462;53.530;9.414;2023-04-25T06:16:51;12.33;;;3.07;;
14740;SDS011;7462;53.530;9.414;2023-04-25T06:19:19;12.93;;;3.20;;
14740;SDS011;7462;53.530;9.414;2023-04-25T06:21:47;11.63;;;2.43;;
14740;SDS011;7462;53.530;9.414;2023-04-25T06:24:15;11.90;;;2.67;;
14740;SDS011;7462;53.530;9.414;2023-04-25T06:26:43;10.37;;;2.50;;
14740;SDS011;7462;53.530;9.414;2023-04-25T06:29:14;14.27;;;2.93;;
14740;SDS011;7462;53.530;9.414;2023-04-25T06:31:42;11.20;;;2.87;;
14740;SDS011;7462;53.530;9.414;2023-04-25T06:34:13;9.93;;;2.37;;
14740;SDS011;7462;53.530;9.414;2023-04-25T06:36:42;14.03;;;2.73;;
14740;SDS011;7462;53.530;9.414;2023-04-25T06:39:14;15.50;;;3.00;;
14740;SDS011;7462;53.530;9.414;2023-04-25T06:41:42;16.77;;;3.03;;
14740;SDS011;7462;53.530;9.414;2023-04-25T06:44:33;15.10;;;2.77;;
14740;SDS011;7462;53.530;9.414;2023-04-25T06:47:03;12.20;;;2.73;;
14740;SDS011;7462;53.530;9.414;2023-04-25T06:49:33;12.27;;;2.60;;
14740;SDS011;7462;53.530;9.414;2023-04-25T06:52:01;14.07;;;2.60;;
14740;SDS011;7462;53.530;9.414;2023-04-25T06:54:29;8.90;;;2.00;;
14740;SDS011;7462;53.530;9.414;2023-04-25T06:57:09;9.73;;;1.90;;
14740;SDS011;7462;53.530;9.414;2023-04-25T06:59:37;8.30;;;1.57;;
14740;SDS011;7462;53.530;9.414;2023-04-25T07:02:05;8.07;;;1.77;;
14740;SDS011;7462;53.530;9.414;2023-04-25T07:04:35;7.10;;;1.40;;
14740;SDS011;7462;53.530;9.414;2023-04-25T07:07:04;4.63;;;1.37;;
14740;SDS011;7462;53.530;9.414;2023-04-25T07:09:38;5.73;;;1.60;;
14740;SDS011;7462;53.530;9.414;2023-04-25T07:12:06;5.90;;;1.53;;
14740;SDS011;7462;53.530;9.414;2023-04-25T07:14:35;4.27;;;1.50;;
14740;SDS011;7462;53.530;9.414;2023-04-25T07:17:04;5.13;;;1.43;;
14740;SDS011;7462;53.530;9.414;2023-04-25T07:19:33;5.10;;;1.27;;
14740;SDS011;7462;53.530;9.414;2023-04-25T07:22:05;6.07;;;1.60;;
14740;SDS011;7462;53.530;9.414;2023-04-25T07:24:35;5.43;;;1.20;;
14740;SDS011;7462;53.530;9.414;2023-04-25T07:27:04;6.17;;;1.47;;
14740;SDS011;7462;53.530;9.414;2023-04-25T07:29:50;6.43;;;1.67;;
14740;SDS011;7462;53.530;9.414;2023-04-25T07:32:21;7.57;;;1.80;;
14740;SDS011;7462;53.530;9.414;2023-04-25T07:34:51;8.33;;;1.93;;
14740;SDS011;7462;53.530;9.414;2023-04-25T07:37:19;8.03;;;1.97;;
14740;SDS011;7462;53.530;9.414;2023-04-25T07:40:00;7.70;;;1.77;;
14740;SDS011;7462;53.530;9.414;2023-04-25T07:42:30;10.47;;;2.00;;
14740;SDS011;7462;53.530;9.414;2023-04-25T07:45:00;6.87;;;1.50;;
14740;SDS011;7462;53.530;9.414;2023-04-25T07:47:29;9.83;;;1.80;;
14740;SDS011;7462;53.530;9.414;2023-04-25T07:49:59;7.33;;;1.73;;
14740;SDS011;7462;53.530;9.414;2023-04-25T07:52:28;6.33;;;1.50;;
14740;SDS011;7462;53.530;9.414;2023-04-25T07:55:05;4.70;;;1.40;;
14740;SDS011;7462;53.530;9.414;2023-04-25T07:57:42;7.73;;;1.80;;
14740;SDS011;7462;53.530;9.414;2023-04-25T08:00:11;9.40;;;2.00;;
14740;SDS011;7462;53.530;9.414;2023-04-25T08:02:46;7.17;;;1.70;;
14740;SDS011;7462;53.530;9.414;2023-04-25T08:05:17;10.43;;;1.87;;
14740;SDS011;7462;53.530;9.414;2023-04-25T08:07:54;7.70;;;1.80;;
14740;SDS011;7462;53.530;9.414;2023-04-25T08:10:23;8.80;;;2.10;;
14740;SDS011;7462;53.530;9.414;2023-04-25T08:12:51;11.63;;;2.50;;
14740;SDS011;7462;53.530;9.414;2023-04-25T08:15:19;9.43;;;2.10;;
14740;SDS011;7462;53.530;9.414;2023-04-25T08:17:48;7.10;;;1.70;;
14740;SDS011;7462;53.530;9.414;2023-04-25T08:20:17;7.43;;;1.50;;
14740;SDS011;7462;53.530;9.414;2023-04-25T08:22:45;11.03;;;1.73;;
14740;SDS011;7462;53.530;9.414;2023-04-25T08:25:30;8.67;;;1.77;;
14740;SDS011;7462;53.530;9.414;2023-04-25T08:27:58;3.90;;;1.40;;
14740;SDS011;7462;53.530;9.414;2023-04-25T08:30:29;7.53;;;1.53;;
14740;SDS011;7462;53.530;9.414;2023-04-25T08:32:57;8.37;;;1.57;;
14740;SDS011;7462;53.530;9.414;2023-04-25T08:35:47;4.67;;;1.30;;
14740;SDS011;7462;53.530;9.414;2023-04-25T08:38:15;6.27;;;1.33;;
14740;SDS011;7462;53.530;9.414;2023-04-25T08:40:44;7.00;;;1.77;;
14740;SDS011;7462;53.530;9.414;2023-04-25T08:43:17;5.40;;;1.47;;
14740;SDS011;7462;53.530;9.414;2023-04-25T08:45:47;8.43;;;1.80;;
14740;SDS011;7462;53.530;9.414;2023-04-25T08:48:33;8.23;;;1.77;;
14740;SDS011;7462;53.530;9.414;2023-04-25T08:51:05;6.67;;;1.30;;
14740;SDS011;7462;53.530;9.414;2023-04-25T08:53:37;6.47;;;1.60;;
14740;SDS011;7462;53.530;9.414;2023-04-25T08:56:09;7.47;;;1.67;;
14740;SDS011;7462;53.530;9.414;2023-04-25T08:58:40;4.50;;;1.50;;
14740;SDS011;7462;53.530;9.414;2023-04-25T09:01:08;4.77;;;1.37;;
14740;SDS011;7462;53.530;9.414;2023-04-25T09:03:45;8.97;;;1.33;;
14740;SDS011;7462;53.530;9.414;2023-04-25T09:06:15;9.90;;;1.60;;
14740;SDS011;7462;53.530;9.414;2023-04-25T09:08:45;7.53;;;1.83;;
14740;SDS011;7462;53.530;9.414;2023-04-25T09:11:13;6.37;;;1.80;;
14740;SDS011;7462;53.530;9.414;2023-04-25T09:13:42;9.53;;;1.53;;
14740;SDS011;7462;53.530;9.414;2023-04-25T09:16:26;13.40;;;1.60;;
14740;SDS011;7462;53.530;9.414;2023-04-25T09:19:19;5.63;;;1.13;;
14740;SDS011;7462;53.530;9.414;2023-04-25T09:22:07;5.37;;;1.37;;
14740;SDS011;7462;53.530;9.414;2023-04-25T09:24:36;6.23;;;1.30;;
14740;SDS011;7462;53.530;9.414;2023-04-25T09:27:06;6.67;;;1.33;;
14740;SDS011;7462;53.530;9.414;2023-04-25T09:29:35;7.63;;;1.80;;
14740;SDS011;7462;53.530;9.414;2023-04-25T09:32:11;7.33;;;1.40;;
14740;SDS011;7462;53.530;9.414;2023-04-25T09:34:44;7.90;;;1.70;;
14740;SDS011;7462;53.530;9.414;2023-04-25T09:37:19;6.97;;;1.60;;
14740;SDS011;7462;53.530;9.414;2023-04-25T09:40:05;9.00;;;1.67;;
14740;SDS011;7462;53.530;9.414;2023-04-25T09:42:49;8.83;;;1.97;;
14740;SDS011;7462;53.530;9.414;2023-04-25T09:45:18;8.70;;;2.20;;
14740;SDS011;7462;53.530;9.414;2023-04-25T09:47:46;5.00;;;1.50;;
14740;SDS011;7462;53.530;9.414;2023-04-25T09:50:19;8.97;;;1.63;;
14740;SDS011;7462;53.530;9.414;2023-04-25T09:53:06;8.70;;;1.63;;
14740;SDS011;7462;53.530;9.414;2023-04-25T09:55:52;6.37;;;1.67;;
14740;SDS011;7462;53.530;9.414;2023-04-25T09:58:20;6.67;;;1.57;;
14740;SDS011;7462;53.530;9.414;2023-04-25T10:00:48;8.07;;;1.47;;
14740;SDS011;7462;53.530;9.414;2023-04-25T10:03:29;6.13;;;1.40;;
14740;SDS011;7462;53.530;9.414;2023-04-25T10:06:14;8.90;;;1.70;;
14740;SDS011;7462;53.530;9.414;2023-04-25T10:08:51;4.70;;;1.30;;
14740;SDS011;7462;53.530;9.414;2023-04-25T10:11:22;6.77;;;1.27;;
14740;SDS011;7462;53.530;9.414;2023-04-25T10:13:53;7.93;;;1.40;;
14740;SDS011;7462;53.530;9.414;2023-04-25T10:16:22;6.97;;;1.20;;
14740;SDS011;7462;53.530;9.414;2023-04-25T10:18:50;8.20;;;1.40;;
14740;SDS011;7462;53.530;9.414;2023-04-25T10:21:19;6.43;;;1.73;;
14740;SDS011;7462;53.530;9.414;2023-04-25T10:23:50;4.37;;;1.30;;
14740;SDS011;7462;53.530;9.414;2023-04-25T10:26:19;4.20;;;1.40;;
14740;SDS011;7462;53.530;9.414;2023-04-25T10:28:57;7.77;;;1.70;;
14740;SDS011;7462;53.530;9.414;2023-04-25T10:31:27;4.90;;;1.47;;
14740;SDS011;7462;53.530;9.414;2023-04-25T10:33:57;4.60;;;1.20;;
14740;SDS011;7462;53.530;9.414;2023-04-25T10:36:26;5.73;;;1.57;;
14740;SDS011;7462;53.530;9.414;2023-04-25T10:39:03;5.63;;;1.20;;
14740;SDS011;7462;53.530;9.414;2023-04-25T10:41:45;4.73;;;1.20;;
14740;SDS011;7462;53.530;9.414;2023-04-25T10:44:14;5.90;;;1.30;;
14740;SDS011;7462;53.530;9.414;2023-04-25T10:46:43;7.93;;;1.70;;
14740;SDS011;7462;53.530;9.414;2023-04-25T10:49:27;9.77;;;1.40;;
14740;SDS011;7462;53.530;9.414;2023-04-25T10:54:53;7.47;;;1.27;;
14740;SDS011;7462;53.530;9.414;2023-04-25T10:57:32;8.00;;;1.60;;
14740;SDS011;7462;53.530;9.414;2023-04-25T11:00:05;5.47;;;1.60;;
14740;SDS011;7462;53.530;9.414;2023-04-25T11:02:42;6.00;;;1.40;;
14740;SDS011;7462;53.530;9.414;2023-04-25T11:05:19;9.43;;;1.87;;
14740;SDS011;7462;53.530;9.414;2023-04-25T11:07:50;6.30;;;1.40;;
14740;SDS011;7462;53.530;9.414;2023-04-25T11:10:34;6.00;;;1.47;;
14740;SDS011;7462;53.530;9.414;2023-04-25T11:13:02;8.83;;;1.87;;
14740;SDS011;7462;53.530;9.414;2023-04-25T11:15:31;7.93;;;1.50;;
14740;SDS011;7462;53.530;9.414;2023-04-25T11:17:59;6.20;;;1.57;;
14740;SDS011;7462;53.530;9.414;2023-04-25T11:20:27;6.10;;;1.40;;
14740;SDS011;7462;53.530;9.414;2023-04-25T11:22:57;9.30;;;1.63;;
14740;SDS011;7462;53.530;9.414;2023-04-25T11:25:26;5.57;;;1.27;;
14740;SDS011;7462;53.530;9.414;2023-04-25T11:27:57;7.50;;;1.60;;
14740;SDS011;7462;53.530;9.414;2023-04-25T11:30:27;6.30;;;1.63;;
14740;SDS011;7462;53.530;9.414;2023-04-25T11:32:56;3.70;;;1.33;;
14740;SDS011;7462;53.530;9.414;2023-04-25T11:35:25;8.07;;;1.50;;
14740;SDS011;7462;53.530;9.414;2023-04-25T11:37:53;5.63;;;1.50;;
14740;SDS011;7462;53.530;9.414;2023-04-25T11:40:21;5.87;;;1.40;;
14740;SDS011;7462;53.530;9.414;2023-04-25T11:42:49;6.70;;;1.27;;
14740;SDS011;7462;53.530;9.414;2023-04-25T11:45:22;7.97;;;2.00;;
14740;SDS011;7462;53.530;9.414;2023-04-25T11:47:51;5.17;;;1.60;;
14740;SDS011;7462;53.530;9.414;2023-04-25T11:50:19;7.33;;;1.40;;
14740;SDS011;7462;53.530;9.414;2023-04-25T11:52:47;7.37;;;2.00;;
14740;SDS011;7462;53.530;9.414;2023-04-25T11:55:17;13.30;;;2.10;;
14740;SDS011;7462;53.530;9.414;2023-04-25T11:57:47;6.83;;;1.37;;
14740;SDS011;7462;53.530;9.414;2023-04-25T12:00:17;6.73;;;1.50;;
14740;SDS011;7462;53.530;9.414;2023-04-25T12:02:51;6.87;;;1.43;;
14740;SDS011;7462;53.530;9.414;2023-04-25T12:05:23;6.17;;;1.40;;
14740;SDS011;7462;53.530;9.414;2023-04-25T12:07:58;1.40;;;0.77;;
14740;SDS011;7462;53.530;9.414;2023-04-25T12:10:37;5.93;;;1.27;;
14740;SDS011;7462;53.530;9.414;2023-04-25T12:13:19;6.50;;;1.53;;
14740;SDS011;7462;53.530;9.414;2023-04-25T12:15:48;7.83;;;1.50;;
14740;SDS011;7462;53.530;9.414;2023-04-25T12:18:19;7.07;;;1.67;;
14740;SDS011;7462;53.530;9.414;2023-04-25T12:20:48;3.97;;;1.20;;
14740;SDS011;7462;53.530;9.414;2023-04-25T12:23:16;6.83;;;1.30;;
14740;SDS011;7462;53.530;9.414;2023-04-25T12:25:44;5.67;;;1.27;;
14740;SDS011;7462;53.530;9.414;2023-04-25T12:28:14;4.60;;;1.43;;
14740;SDS011;7462;53.530;9.414;2023-04-25T12:30:52;4.20;;;1.27;;
14740;SDS011;7462;53.530;9.414;2023-04-25T12:33:23;8.97;;;1.57;;
14740;SDS011;7462;53.530;9.414;2023-04-25T12:35:51;8.53;;;1.80;;
14740;SDS011;7462;53.530;9.414;2023-04-25T12:38:20;4.63;;;1.37;;
14740;SDS011;7462;53.530;9.414;2023-04-25T12:40:49;4.83;;;1.80;;
14740;SDS011;7462;53.530;9.414;2023-04-25T12:43:17;6.23;;;1.83;;
14740;SDS011;7462;53.530;9.414;2023-04-25T12:45:47;5.30;;;1.30;;
14740;SDS011;7462;53.530;9.414;2023-04-25T12:48:16;5.90;;;1.67;;
14740;SDS011;7462;53.530;9.414;2023-04-25T12:50:45;12.00;;;1.43;;
14740;SDS011;7462;53.530;9.414;2023-04-25T12:53:15;7.10;;;1.67;;
14740;SDS011;7462;53.530;9.414;2023-04-25T12:55:43;8.53;;;1.60;;
14740;SDS011;7462;53.530;9.414;2023-04-25T12:58:13;7.47;;;1.70;;
14740;SDS011;7462;53.530;9.414;2023-04-25T13:00:41;7.77;;;1.63;;
14740;SDS011;7462;53.530;9.414;2023-04-25T13:03:09;7.67;;;1.50;;
14740;SDS011;7462;53.530;9.414;2023-04-25T13:05:59;8.23;;;1.70;;
14740;SDS011;7462;53.530;9.414;2023-04-25T13:08:27;7.63;;;1.40;;
14740;SDS011;7462;53.530;9.414;2023-04-25T13:10:55;3.97;;;1.47;;
14740;SDS011;7462;53.530;9.414;2023-04-25T13:13:23;9.23;;;1.93;;
14740;SDS011;7462;53.530;9.414;2023-04-25T13:15:53;4.13;;;1.37;;
14740;SDS011;7462;53.530;9.414;2023-04-25T13:18:21;4.63;;;1.30;;
14740;SDS011;7462;53.530;9.414;2023-04-25T13:20:52;5.43;;;1.40;;
14740;SDS011;7462;53.530;9.414;2023-04-25T13:23:22;6.70;;;1.73;;
14740;SDS011;7462;53.530;9.414;2023-04-25T13:25:50;6.73;;;1.90;;
14740;SDS011;7462;53.530;9.414;2023-04-25T13:28:18;4.90;;;1.27;;
14740;SDS011;7462;53.530;9.414;2023-04-25T13:30:46;4.03;;;1.47;;
14740;SDS011;7462;53.530;9.414;2023-04-25T13:33:15;5.70;;;1.30;;
14740;SDS011;7462;53.530;9.414;2023-04-25T13:35:43;4.43;;;1.00;;
14740;SDS011;7462;53.530;9.414;2023-04-25T13:38:13;6.57;;;1.57;;
14740;SDS011;7462;53.530;9.414;2023-04-25T13:40:42;6.97;;;1.80;;
14740;SDS011;7462;53.530;9.414;2023-04-25T13:43:11;3.93;;;1.20;;
14740;SDS011;7462;53.530;9.414;2023-04-25T13:45:39;5.90;;;1.40;;
14740;SDS011;7462;53.530;9.414;2023-04-25T13:48:07;5.17;;;1.03;;
14740;SDS011;7462;53.530;9.414;2023-04-25T13:50:35;5.97;;;1.43;;
14740;SDS011;7462;53.530;9.414;2023-04-25T13:53:03;7.97;;;1.50;;
14740;SDS011;7462;53.530;9.414;2023-04-25T13:55:32;5.00;;;1.17;;
14740;SDS011;7462;53.530;9.414;2023-04-25T13:58:02;7.23;;;1.60;;
14740;SDS011;7462;53.530;9.414;2023-04-25T14:00:35;5.83;;;1.50;;
14740;SDS011;7462;53.530;9.414;2023-04-25T14:03:04;5.80;;;1.50;;
14740;SDS011;7462;53.530;9.414;2023-04-25T14:05:34;8.60;;;1.67;;
14740;SDS011;7462;53.530;9.414;2023-04-25T14:08:05;5.27;;;1.53;;
14740;SDS011;7462;53.530;9.414;2023-04-25T14:10:34;6.27;;;1.33;;
14740;SDS011;7462;53.530;9.414;2023-04-25T14:13:04;6.23;;;1.53;;
14740;SDS011;7462;53.530;9.414;2023-04-25T14:15:36;6.20;;;1.53;;
14740;SDS011;7462;53.530;9.414;2023-04-25T14:18:04;10.73;;;2.00;;
14740;SDS011;7462;53.530;9.414;2023-04-25T14:20:32;5.73;;;1.40;;
14740;SDS011;7462;53.530;9.414;2023-04-25T14:23:01;8.83;;;1.60;;
14740;SDS011;7462;53.530;9.414;2023-04-25T14:25:29;6.43;;;1.40;;
14740;SDS011;7462;53.530;9.414;2023-04-25T14:27:58;6.73;;;1.80;;
14740;SDS011;7462;53.530;9.414;2023-04-25T14:30:27;4.33;;;1.23;;
14740;SDS011;7462;53.530;9.414;2023-04-25T14:32:55;6.43;;;1.43;;
14740;SDS011;7462;53.530;9.414;2023-04-25T14:35:23;5.63;;;1.17;;
14740;SDS011;7462;53.530;9.414;2023-04-25T14:37:51;7.93;;;1.23;;
14740;SDS011;7462;53.530;9.414;2023-04-25T14:40:20;11.40;;;1.77;;
14740;SDS011;7462;53.530;9.414;2023-04-25T14:42:49;6.97;;;1.77;;
14740;SDS011;7462;53.530;9.414;2023-04-25T14:45:17;5.93;;;1.60;;
14740;SDS011;7462;53.530;9.414;2023-04-25T14:47:47;7.67;;;1.33;;
14740;SDS011;7462;53.530;9.414;2023-04-25T14:50:15;8.87;;;1.57;;
14740;SDS011;7462;53.530;9.414;2023-04-25T14:52:43;6.53;;;1.73;;
14740;SDS011;7462;53.530;9.414;2023-04-25T14:55:12;10.03;;;2.00;;
14740;SDS011;7462;53.530;9.414;2023-04-25T14:57:40;6.80;;;1.70;;
14740;SDS011;7462;53.530;9.414;2023-04-25T15:00:09;10.47;;;1.87;;
14740;SDS011;7462;53.530;9.414;2023-04-25T15:02:41;10.80;;;1.87;;
14740;SDS011;7462;53.530;9.414;2023-04-25T15:05:11;7.97;;;1.87;;
14740;SDS011;7462;53.530;9.414;2023-04-25T15:07:39;7.90;;;1.77;;
14740;SDS011;7462;53.530;9.414;2023-04-25T15:10:08;7.70;;;1.97;;
14740;SDS011;7462;53.530;9.414;2023-04-25T15:12:39;9.20;;;2.00;;
14740;SDS011;7462;53.530;9.414;2023-04-25T15:15:08;8.33;;;1.90;;
14740;SDS011;7462;53.530;9.414;2023-04-25T15:17:43;7.03;;;2.27;;
14740;SDS011;7462;53.530;9.414;2023-04-25T15:20:13;7.97;;;1.73;;
14740;SDS011;7462;53.530;9.414;2023-04-25T15:22:42;6.10;;;1.60;;
14740;SDS011;7462;53.530;9.414;2023-04-25T15:25:11;8.07;;;1.57;;